Time;durP1;ratioP1;P1;durP2;ratioP2;P2;SDS_P1;SDS_P2;PMS_P1;PMS_P2;Temp;Humidity;BMP_temperature;BMP_pressure;BME280_temperature;BME280_humidity;BME280_pressure;Samples;Min_cycle;Max_cycle;Signal;HPM_P1;HPM_P2
2022/09/17 00:00:40;;;;;;;3.85;1.70;;;7.80;97.20;;;;;;5004777;28;20552;-68
2022/09/17 00:03:08;;;;;;;3.92;1.63;;;7.80;97.40;;;;;;5002692;28;20101;-69
2022/09/17 00:05:36;;;;;;;4.30;2.03;;;7.90;97.60;;;;;;5007370;28;20145;-69
2022/09/17 00:08:04;;;;;;;5.95;1.85;;;8.00;97.60;;;;;;4996814;28;20108;-68
2022/09/17 00:10:31;;;;;;;4.93;1.73;;;8.00;98.00;;;;;;5005021;28;20026;-69
2022/09/17 00:12:56;;;;;;;4.03;1.60;;;8.10;98.00;;;;;;4991748;28;20045;-69
2022/09/17 00:15:25;;;;;;;4.45;1.80;;;8.10;98.00;;;;;;5004009;28;20018;-69
2022/09/17 00:17:57;;;;;;;3.83;2.00;;;8.10;97.90;;;;;;5007250;28;21551;-69
2022/09/17 00:20:25;;;;;;;7.00;1.90;;;8.10;97.70;;;;;;4988550;28;20140;-69
2022/09/17 00:22:51;;;;;;;3.85;1.80;;;8.10;97.80;;;;;;5006367;28;20076;-69
2022/09/17 00:25:18;;;;;;;3.45;1.60;;;8.10;97.60;;;;;;5004022;28;20037;-69
2022/09/17 00:27:43;;;;;;;4.80;1.77;;;8.20;97.50;;;;;;5006897;28;21346;-69
2022/09/17 00:30:10;;;;;;;4.57;1.85;;;8.20;97.40;;;;;;5006498;28;20030;-69
2022/09/17 00:32:43;;;;;;;4.10;2.05;;;8.20;97.30;;;;;;5002347;28;20034;-69
2022/09/17 00:35:08;;;;;;;4.35;2.30;;;8.20;97.60;;;;;;5006289;28;20022;-69
2022/09/17 00:37:34;;;;;;;4.90;2.22;;;8.20;97.30;;;;;;5005443;28;21592;-69
2022/09/17 00:40:03;;;;;;;4.38;1.98;;;8.20;97.10;;;;;;5019229;28;20026;-69
2022/09/17 00:42:29;;;;;;;4.25;1.88;;;8.20;97.00;;;;;;5008129;28;20018;-69
2022/09/17 00:45:00;;;;;;;3.67;1.90;;;8.20;96.20;;;;;;5008483;28;20087;-70
2022/09/17 00:47:34;;;;;;;4.82;2.30;;;8.20;96.50;;;;;;4990838;28;20051;-68
2022/09/17 00:50:04;;;;;;;;;;;8.10;96.30;;;;;;4995234;28;20133;-69
2022/09/17 00:52:38;;;;;;;4.75;1.90;;;8.10;96.00;;;;;;4987492;28;19913;-68
2022/09/17 00:55:12;;;;;;;;;;;8.10;95.40;;;;;;5007861;28;20043;-68
2022/09/17 00:57:39;;;;;;;4.75;2.30;;;8.10;96.20;;;;;;5005954;28;20272;-70
2022/09/17 01:00:08;;;;;;;7.28;2.58;;;8.10;95.80;;;;;;5002641;28;20414;-70
2022/09/17 01:02:35;;;;;;;4.85;2.35;;;8.10;95.50;;;;;;5001823;28;20657;-70
2022/09/17 01:05:00;;;;;;;3.88;2.10;;;8.10;95.80;;;;;;5000995;28;20038;-70
2022/09/17 01:07:34;;;;;;;6.45;2.53;;;8.10;95.00;;;;;;4998592;28;20112;-69
2022/09/17 01:10:24;;;;;;;5.60;2.47;;;8.10;95.40;;;;;;5009799;28;20099;-69
2022/09/17 01:13:25;;;;;;;3.80;2.35;;;8.10;95.50;;;;;;4998961;28;20042;-69
2022/09/17 01:16:25;;;;;;;5.72;2.40;;;8.10;95.50;;;;;;4981067;28;21911;-69
2022/09/17 01:19:21;;;;;;;6.20;2.70;;;8.20;95.50;;;;;;5011399;28;20144;-69
2022/09/17 01:22:02;;;;;;;6.07;2.33;;;8.20;95.40;;;;;;4920333;28;20849;-70
2022/09/17 01:25:08;;;;;;;4.43;2.05;;;8.20;96.10;;;;;;5016291;28;20821;-70
2022/09/17 01:28:05;;;;;;;4.05;2.17;;;8.20;95.60;;;;;;4945704;28;20046;-69
2022/09/17 01:31:03;;;;;;;5.18;2.30;;;8.20;96.20;;;;;;5002821;28;20300;-68
2022/09/17 01:34:04;;;;;;;5.38;2.65;;;8.20;96.10;;;;;;5005704;28;20326;-68
2022/09/17 01:37:07;;;;;;;4.15;2.33;;;8.20;96.70;;;;;;5002645;28;20117;-69
2022/09/17 01:39:45;;;;;;;3.83;2.20;;;8.20;97.00;;;;;;5012879;28;20144;-69
2022/09/17 01:42:14;;;;;;;4.60;2.25;;;8.20;97.40;;;;;;4996166;28;20350;-71
2022/09/17 01:44:49;;;;;;;4.57;2.10;;;8.20;98.00;;;;;;5009379;28;20447;-68
2022/09/17 01:47:46;;;;;;;4.22;2.17;;;8.30;97.90;;;;;;5004916;28;20026;-68
2022/09/17 01:50:20;;;;;;;8.23;3.22;;;8.30;98.00;;;;;;5005801;28;20121;-69
2022/09/17 01:52:48;;;;;;;;;;;8.20;98.00;;;;;;4997979;28;20057;-68
2022/09/17 01:55:19;;;;;;;14.20;3.03;;;8.20;97.90;;;;;;5015766;28;19915;-69
2022/09/17 01:57:48;;;;;;;7.97;2.50;;;8.30;97.70;;;;;;4992885;28;20125;-68
2022/09/17 02:00:16;;;;;;;6.38;2.65;;;8.20;98.00;;;;;;5010531;28;20021;-69
2022/09/17 02:02:54;;;;;;;4.30;2.40;;;8.20;97.70;;;;;;5006118;28;20033;-69
2022/09/17 02:05:33;;;;;;;4.40;2.10;;;8.30;98.00;;;;;;5000272;28;20025;-69
2022/09/17 02:08:13;;;;;;;5.43;2.67;;;8.30;98.00;;;;;;5006381;28;20018;-70
2022/09/17 02:10:48;;;;;;;6.90;2.65;;;8.30;98.00;;;;;;5007272;28;20042;-68
2022/09/17 02:13:19;;;;;;;4.40;2.85;;;8.20;97.20;;;;;;5008491;28;20148;-69
2022/09/17 02:15:53;;;;;;;5.57;2.83;;;8.20;96.30;;;;;;5007473;28;20033;-69
2022/09/17 02:18:25;;;;;;;5.93;3.05;;;8.10;95.80;;;;;;5022078;28;20026;-68
2022/09/17 02:21:08;;;;;;;4.70;2.97;;;8.00;94.80;;;;;;4982250;28;20030;-68
2022/09/17 02:23:42;;;;;;;4.13;2.70;;;7.90;93.90;;;;;;4988815;28;20500;-69
2022/09/17 02:26:14;;;;;;;6.05;3.13;;;7.90;93.70;;;;;;4993503;28;20128;-69
2022/09/17 02:28:46;;;;;;;4.65;3.13;;;7.80;93.80;;;;;;4991391;28;20060;-69
2022/09/17 02:31:12;;;;;;;5.43;3.22;;;7.70;93.70;;;;;;5002147;28;20350;-69
2022/09/17 02:33:41;;;;;;;5.65;3.22;;;7.70;92.50;;;;;;5005887;28;20029;-69
2022/09/17 02:36:09;;;;;;;6.57;3.00;;;7.60;91.90;;;;;;4998469;28;20129;-70
2022/09/17 02:38:34;;;;;;;3.90;2.70;;;7.70;93.30;;;;;;5013865;28;20103;-69
2022/09/17 02:41:05;;;;;;;4.53;2.97;;;7.70;93.90;;;;;;5004656;28;20096;-69
2022/09/17 02:44:03;;;;;;;6.95;2.97;;;7.70;94.20;;;;;;4998017;28;20325;-69
2022/09/17 02:47:06;;;;;;;5.15;3.15;;;7.70;93.90;;;;;;5022137;28;20319;-68
2022/09/17 02:49:59;;;;;;;5.05;3.00;;;7.70;93.00;;;;;;4996937;28;20076;-69
2022/09/17 02:52:59;;;;;;;6.65;2.97;;;7.70;93.90;;;;;;5011183;28;20029;-69
2022/09/17 02:55:40;;;;;;;4.55;2.97;;;7.70;94.70;;;;;;5013715;28;20034;-69
2022/09/17 02:58:15;;;;;;;5.00;2.97;;;7.70;94.70;;;;;;5017382;28;20026;-69
2022/09/17 03:00:43;;;;;;;5.53;2.95;;;7.70;94.60;;;;;;5001023;28;20423;-68
2022/09/17 03:03:28;;;;;;;5.15;3.20;;;7.80;94.30;;;;;;5004278;28;20136;-69
2022/09/17 03:05:54;;;;;;;;;;;7.80;94.10;;;;;;5010942;28;20034;-69
2022/09/17 03:08:38;;;;;;;5.63;3.17;;;7.80;93.70;;;;;;5000983;28;19909;-69
2022/09/17 03:11:04;;;;;;;6.80;3.80;;;7.70;93.60;;;;;;4994445;28;20034;-68
2022/09/17 03:13:30;;;;;;;6.95;3.60;;;7.70;92.30;;;;;;5000430;28;20025;-69
2022/09/17 03:15:56;;;;;;;9.02;3.70;;;7.70;92.30;;;;;;5010778;28;20351;-69
2022/09/17 03:18:23;;;;;;;6.40;3.40;;;7.70;91.70;;;;;;5001270;28;20030;-70
2022/09/17 03:20:49;;;;;;;5.80;3.55;;;7.70;91.10;;;;;;5002773;28;20081;-69
2022/09/17 03:23:15;;;;;;;6.10;3.90;;;7.60;91.00;;;;;;5012389;28;20119;-69
2022/09/17 03:25:41;;;;;;;8.77;4.88;;;7.60;90.00;;;;;;5020110;28;20053;-69
2022/09/17 03:28:06;;;;;;;7.53;4.00;;;7.50;90.20;;;;;;5016222;28;20573;-70
2022/09/17 03:30:32;;;;;;;6.68;3.78;;;7.50;89.40;;;;;;5024733;28;20022;-70
2022/09/17 03:32:57;;;;;;;8.85;4.35;;;7.50;88.80;;;;;;5015831;28;20032;-70
2022/09/17 03:35:24;;;;;;;10.40;4.80;;;7.50;88.70;;;;;;5014098;28;20334;-71
2022/09/17 03:37:49;;;;;;;9.38;4.07;;;7.50;87.90;;;;;;5015310;28;20026;-71
2022/09/17 03:40:15;;;;;;;11.55;4.40;;;7.50;87.00;;;;;;5012284;28;20028;-70
2022/09/17 03:42:41;;;;;;;9.23;4.25;;;7.50;87.30;;;;;;5004651;28;20065;-71
2022/09/17 03:45:07;;;;;;;8.75;4.20;;;7.50;86.90;;;;;;5012334;28;20081;-70
2022/09/17 03:47:33;;;;;;;7.50;5.03;;;7.50;86.30;;;;;;5001116;28;20325;-71
2022/09/17 03:49:58;;;;;;;9.20;5.10;;;7.40;86.50;;;;;;5016069;28;20045;-71
2022/09/17 03:52:26;;;;;;;7.25;4.63;;;7.40;85.70;;;;;;5010797;28;20037;-71
2022/09/17 03:54:54;;;;;;;7.95;5.30;;;7.30;85.60;;;;;;5019516;28;20034;-70
2022/09/17 03:57:26;;;;;;;9.38;6.38;;;7.20;85.90;;;;;;5014345;28;20029;-69
2022/09/17 03:59:51;;;;;;;10.05;7.07;;;7.10;85.50;;;;;;5002342;28;20033;-69
2022/09/17 04:02:17;;;;;;;9.48;6.47;;;7.00;85.10;;;;;;4994564;28;20028;-69
2022/09/17 04:04:45;;;;;;;8.85;6.22;;;7.00;84.30;;;;;;5010418;28;20456;-71
2022/09/17 04:07:11;;;;;;;6.97;5.65;;;6.90;83.70;;;;;;5004442;28;20057;-71
2022/09/17 04:09:36;;;;;;;9.20;5.80;;;6.90;83.10;;;;;;5000747;28;20080;-70
2022/09/17 04:12:05;;;;;;;10.27;5.85;;;6.90;81.80;;;;;;5014704;28;20088;-70
2022/09/17 04:14:31;;;;;;;10.40;7.22;;;7.00;81.90;;;;;;5004699;28;20315;-70
2022/09/17 04:17:00;;;;;;;8.13;5.43;;;7.00;82.00;;;;;;5011440;28;20022;-71
2022/09/17 04:19:25;;;;;;;9.80;6.18;;;6.90;81.20;;;;;;5012469;28;20044;-70
2022/09/17 04:21:51;;;;;;;7.72;5.25;;;6.90;82.00;;;;;;5014116;28;20022;-70
2022/09/17 04:24:17;;;;;;;10.90;6.78;;;6.90;81.40;;;;;;5022487;28;20021;-70
2022/09/17 04:26:43;;;;;;;8.68;7.25;;;6.90;80.80;;;;;;5013612;28;20116;-70
2022/09/17 04:29:09;;;;;;;9.35;7.15;;;6.90;81.00;;;;;;5013894;28;20100;-70
2022/09/17 04:31:34;;;;;;;10.73;7.03;;;6.90;80.40;;;;;;5002992;28;20048;-70
2022/09/17 04:34:05;;;;;;;11.07;7.78;;;7.00;80.40;;;;;;5018591;28;20332;-70
2022/09/17 04:36:31;;;;;;;11.25;7.38;;;7.00;80.10;;;;;;5009537;28;20109;-69
2022/09/17 04:38:57;;;;;;;10.10;6.85;;;7.00;79.70;;;;;;5006822;28;20545;-69
2022/09/17 04:41:22;;;;;;;10.27;7.43;;;7.00;79.60;;;;;;5011691;28;20117;-70
2022/09/17 04:43:48;;;;;;;11.48;7.18;;;7.10;79.60;;;;;;5011643;28;20314;-70
2022/09/17 04:46:15;;;;;;;10.88;7.38;;;7.10;80.10;;;;;;5009782;28;20187;-70
2022/09/17 04:48:43;;;;;;;11.43;7.50;;;7.10;80.10;;;;;;5007478;28;20486;-70
2022/09/17 04:51:12;;;;;;;13.18;7.30;;;7.10;80.50;;;;;;5004153;28;20131;-70
2022/09/17 04:53:38;;;;;;;10.40;7.43;;;7.00;80.20;;;;;;5013601;28;20345;-69
2022/09/17 04:56:04;;;;;;;9.48;7.95;;;7.10;80.30;;;;;;4994403;28;20022;-71
2022/09/17 04:58:30;;;;;;;12.80;7.97;;;7.00;81.20;;;;;;5009036;28;20311;-69
2022/09/17 05:00:58;;;;;;;10.93;7.13;;;7.10;81.10;;;;;;5001598;28;20022;-70
2022/09/17 05:03:24;;;;;;;12.18;7.25;;;7.10;81.20;;;;;;5007057;28;20034;-70
2022/09/17 05:05:50;;;;;;;10.43;7.85;;;7.10;81.00;;;;;;4999322;28;20322;-70
2022/09/17 05:08:15;;;;;;;9.70;7.55;;;7.10;81.60;;;;;;5018844;28;20034;-70
2022/09/17 05:10:41;;;;;;;11.25;7.95;;;7.00;81.60;;;;;;5009878;28;20022;-70
2022/09/17 05:13:07;;;;;;;10.75;7.65;;;7.00;81.70;;;;;;5022190;28;20304;-70
2022/09/17 05:15:32;;;;;;;10.10;7.85;;;7.00;82.10;;;;;;5014451;28;20030;-69
2022/09/17 05:17:58;;;;;;;11.85;7.60;;;6.90;82.00;;;;;;4998905;28;20103;-70
2022/09/17 05:20:23;;;;;;;9.35;7.30;;;6.90;81.70;;;;;;5002645;28;20041;-69
2022/09/17 05:22:51;;;;;;;11.98;8.55;;;6.90;81.80;;;;;;4994566;28;20430;-70
2022/09/17 05:25:19;;;;;;;8.70;6.88;;;6.90;82.00;;;;;;4991726;28;20040;-69
2022/09/17 05:27:45;;;;;;;11.95;7.60;;;6.80;82.40;;;;;;5007761;28;20120;-70
2022/09/17 05:30:11;;;;;;;12.50;8.63;;;6.80;81.80;;;;;;5009339;28;20104;-69
2022/09/17 05:32:39;;;;;;;10.57;8.02;;;6.80;81.70;;;;;;5010526;28;20022;-69
2022/09/17 05:35:06;;;;;;;9.50;6.85;;;6.90;81.20;;;;;;5001695;28;20025;-70
2022/09/17 05:37:31;;;;;;;11.18;5.75;;;6.90;80.80;;;;;;5021406;28;20026;-70
2022/09/17 05:39:57;;;;;;;9.05;6.00;;;7.00;81.40;;;;;;5008502;28;20362;-70
2022/09/17 05:42:25;;;;;;;9.15;5.20;;;7.00;81.80;;;;;;5012913;28;20144;-70
2022/09/17 05:44:51;;;;;;;9.75;4.82;;;7.00;81.90;;;;;;5009894;28;20045;-70
2022/09/17 05:47:16;;;;;;;5.82;4.57;;;7.00;82.70;;;;;;5015954;28;20033;-70
2022/09/17 05:49:42;;;;;;;8.70;4.40;;;7.10;83.30;;;;;;5008040;28;20464;-70
2022/09/17 05:52:08;;;;;;;10.18;5.13;;;7.10;84.30;;;;;;5019105;28;20033;-70
2022/09/17 05:54:36;;;;;;;6.78;4.07;;;7.10;85.20;;;;;;5016155;28;20025;-70
2022/09/17 05:57:05;;;;;;;6.25;4.10;;;7.10;85.20;;;;;;4992846;28;20030;-70
2022/09/17 05:59:30;;;;;;;8.63;4.30;;;7.20;85.70;;;;;;5016879;28;20327;-70
2022/09/17 06:01:56;;;;;;;6.07;3.45;;;7.20;86.60;;;;;;4995141;28;20026;-70
2022/09/17 06:04:22;;;;;;;6.18;3.75;;;7.20;87.30;;;;;;5021788;28;20048;-70
2022/09/17 06:06:47;;;;;;;8.85;3.83;;;7.20;88.10;;;;;;5016597;28;20100;-70
2022/09/17 06:09:13;;;;;;;10.75;4.30;;;7.20;88.30;;;;;;5011200;28;20034;-70
2022/09/17 06:11:41;;;;;;;6.70;3.80;;;7.20;88.20;;;;;;5016056;28;20100;-70
2022/09/17 06:14:08;;;;;;;8.65;4.07;;;7.20;89.00;;;;;;5023963;28;20045;-70
2022/09/17 06:16:34;;;;;;;7.57;3.85;;;7.20;90.20;;;;;;5009726;28;20021;-70
2022/09/17 06:19:00;;;;;;;7.30;4.32;;;7.20;91.00;;;;;;5008325;28;20021;-69
2022/09/17 06:21:25;;;;;;;9.60;4.72;;;7.20;91.80;;;;;;5009788;28;20068;-70
2022/09/17 06:23:55;;;;;;;11.70;4.80;;;7.20;91.40;;;;;;5014055;28;20045;-70
2022/09/17 06:26:21;;;;;;;8.52;4.93;;;7.30;90.80;;;;;;5015110;28;20358;-70
2022/09/17 06:28:46;;;;;;;10.63;5.60;;;7.20;91.70;;;;;;5015606;28;20037;-69
2022/09/17 06:31:12;;;;;;;9.85;5.82;;;7.30;90.10;;;;;;5009599;28;20037;-69
2022/09/17 06:33:40;;;;;;;9.32;4.70;;;7.40;90.70;;;;;;5017270;28;20066;-69
2022/09/17 06:36:11;;;;;;;8.15;3.92;;;7.40;91.60;;;;;;5017265;28;20025;-69
2022/09/17 06:38:36;;;;;;;8.18;3.92;;;7.40;94.60;;;;;;5018523;28;20106;-69
2022/09/17 06:41:05;;;;;;;9.65;4.40;;;7.40;94.20;;;;;;5014747;28;20381;-69
2022/09/17 06:43:33;;;;;;;9.35;4.07;;;7.40;93.10;;;;;;5015202;28;20025;-69
2022/09/17 06:46:07;;;;;;;11.45;4.30;;;7.50;93.90;;;;;;5007899;28;20026;-69
2022/09/17 06:48:34;;;;;;;;;;;7.50;95.60;;;;;;5008508;28;20072;-69
2022/09/17 06:51:03;;;;;;;6.65;4.05;;;7.50;94.60;;;;;;5012566;28;19925;-69
2022/09/17 06:53:30;;;;;;;12.80;3.70;;;7.50;95.80;;;;;;5015653;28;20374;-69
2022/09/17 06:55:57;;;;;;;9.70;4.55;;;7.50;96.40;;;;;;5026629;28;20034;-69
2022/09/17 06:58:24;;;;;;;9.25;3.75;;;7.60;95.50;;;;;;5011063;28;20038;-69
2022/09/17 07:00:50;;;;;;;11.48;3.92;;;7.70;97.30;;;;;;5014152;28;20022;-68
2022/09/17 07:03:16;;;;;;;5.90;3.35;;;7.90;98.00;;;;;;5018835;28;20032;-69
2022/09/17 07:05:43;;;;;;;8.50;3.28;;;8.00;98.00;;;;;;5016873;28;20025;-70
2022/09/17 07:08:12;;;;;;;10.40;4.15;;;8.20;98.00;;;;;;5035260;28;20021;-69
2022/09/17 07:10:37;;;;;;;7.25;3.92;;;8.30;98.00;;;;;;5009325;28;20038;-68
2022/09/17 07:13:03;;;;;;;8.90;3.90;;;8.30;98.00;;;;;;4988323;28;20037;-70
2022/09/17 07:15:29;;;;;;;7.75;3.10;;;8.20;98.00;;;;;;5005601;28;20048;-70
2022/09/17 07:17:55;;;;;;;6.75;3.30;;;8.00;98.00;;;;;;5034790;28;20049;-70
2022/09/17 07:20:20;;;;;;;8.63;3.30;;;8.00;98.00;;;;;;5025676;28;20105;-70
2022/09/17 07:22:56;;;;;;;8.07;3.50;;;8.00;98.00;;;;;;5010144;28;20022;-70
2022/09/17 07:25:22;;;;;;;12.40;3.97;;;8.10;98.00;;;;;;5015878;28;20026;-70
2022/09/17 07:27:47;;;;;;;12.13;3.10;;;8.10;98.00;;;;;;5014643;28;20038;-69
2022/09/17 07:30:14;;;;;;;6.57;3.22;;;8.30;98.00;;;;;;5016257;28;20052;-69
2022/09/17 07:32:39;;;;;;;10.63;4.47;;;8.50;98.00;;;;;;5010223;28;20022;-70
2022/09/17 07:35:05;;;;;;;9.77;3.53;;;8.70;98.00;;;;;;5009983;28;20017;-70
2022/09/17 07:37:37;;;;;;;10.10;3.50;;;8.70;98.00;;;;;;5004012;28;20041;-70
2022/09/17 07:40:06;;;;;;;14.85;6.43;;;8.70;98.00;;;;;;5000927;28;20493;-69
2022/09/17 07:42:32;;;;;;;15.73;5.40;;;8.70;98.00;;;;;;5006057;28;20076;-69
2022/09/17 07:44:58;;;;;;;8.50;3.80;;;8.80;98.00;;;;;;5012588;28;20313;-69
2022/09/17 07:47:24;;;;;;;11.15;4.43;;;8.80;98.00;;;;;;5008488;28;20113;-70
2022/09/17 07:49:49;;;;;;;8.95;3.40;;;8.80;98.00;;;;;;5020744;28;20065;-70
2022/09/17 07:52:18;;;;;;;10.00;3.53;;;8.80;98.00;;;;;;5005510;28;20036;-69
2022/09/17 07:54:43;;;;;;;8.82;3.33;;;8.70;98.00;;;;;;5005949;28;20021;-69
2022/09/17 07:57:09;;;;;;;8.32;3.83;;;8.60;98.00;;;;;;5006067;28;20026;-70
2022/09/17 07:59:35;;;;;;;11.48;3.58;;;8.40;98.00;;;;;;5007000;28;20088;-70
2022/09/17 08:02:01;;;;;;;11.07;3.83;;;8.10;98.00;;;;;;4998938;28;20076;-71
2022/09/17 08:04:26;;;;;;;14.43;6.40;;;7.90;96.60;;;;;;5018643;28;20041;-71
2022/09/17 08:06:52;;;;;;;11.93;5.63;;;7.90;94.10;;;;;;5009405;28;20034;-72
2022/09/17 08:09:17;;;;;;;9.77;4.45;;;7.80;93.30;;;;;;5014337;28;20325;-72
2022/09/17 08:11:43;;;;;;;9.55;3.80;;;7.70;92.80;;;;;;5015382;28;20033;-72
2022/09/17 08:14:14;;;;;;;13.30;5.88;;;7.60;93.40;;;;;;5028377;28;20095;-72
2022/09/17 08:16:40;;;;;;;12.15;6.63;;;7.50;91.00;;;;;;5003031;28;20030;-71
2022/09/17 08:19:06;;;;;;;12.77;7.18;;;7.60;88.40;;;;;;5014301;28;20022;-71
2022/09/17 08:21:31;;;;;;;11.95;5.75;;;7.70;87.30;;;;;;5021251;28;20023;-71
2022/09/17 08:23:57;;;;;;;14.80;4.32;;;7.90;86.40;;;;;;5014083;28;20108;-71
2022/09/17 08:26:24;;;;;;;8.82;3.17;;;7.80;91.80;;;;;;5019564;28;20033;-71
2022/09/17 08:28:53;;;;;;;12.43;5.03;;;7.60;92.70;;;;;;5005372;28;20030;-71
2022/09/17 08:31:20;;;;;;;12.88;4.50;;;7.60;90.60;;;;;;5020079;28;20033;-72
2022/09/17 08:33:46;;;;;;;7.53;3.40;;;7.70;88.70;;;;;;5019689;28;20038;-71
2022/09/17 08:36:14;;;;;;;9.85;3.42;;;7.70;91.60;;;;;;5031509;28;20032;-71
2022/09/17 08:38:43;;;;;;;9.70;3.90;;;7.70;91.80;;;;;;5018599;28;20056;-71
2022/09/17 08:41:09;;;;;;;8.60;3.20;;;7.70;91.60;;;;;;5013929;28;20434;-71
2022/09/17 08:43:57;;;;;;;9.02;3.55;;;7.70;91.80;;;;;;5012972;28;20044;-71
2022/09/17 08:46:30;;;;;;;9.60;4.07;;;7.70;91.20;;;;;;5009845;28;20322;-71
2022/09/17 08:49:04;;;;;;;10.30;4.82;;;7.90;92.50;;;;;;5009260;28;20042;-71
2022/09/17 08:52:08;;;;;;;10.10;3.70;;;8.10;92.20;;;;;;5014864;28;20330;-71
2022/09/17 08:55:02;;;;;;;7.18;3.28;;;8.30;94.10;;;;;;4992697;28;20034;-71
2022/09/17 08:57:36;;;;;;;8.98;3.97;;;8.40;95.00;;;;;;5029126;28;20108;-71
2022/09/17 09:00:17;;;;;;;9.20;3.78;;;8.50;94.40;;;;;;5014257;28;20022;-71
2022/09/17 09:03:02;;;;;;;9.38;3.35;;;8.50;95.60;;;;;;5013329;28;20168;-71
2022/09/17 09:05:44;;;;;;;10.93;4.75;;;8.50;95.60;;;;;;5013417;28;20022;-71
2022/09/17 09:08:47;;;;;;;7.30;3.00;;;8.70;95.80;;;;;;5021360;28;20026;-71
2022/09/17 09:11:20;;;;;;;5.88;2.90;;;8.60;97.00;;;;;;5013774;28;20026;-70
2022/09/17 09:13:53;;;;;;;7.07;4.25;;;8.50;95.20;;;;;;5012656;28;20030;-70
2022/09/17 09:16:32;;;;;;;8.18;3.35;;;8.70;95.50;;;;;;5009380;28;20042;-71
2022/09/17 09:19:13;;;;;;;11.55;6.10;;;8.80;96.30;;;;;;5010618;28;20014;-70
2022/09/17 09:22:02;;;;;;;7.47;3.20;;;8.90;95.90;;;;;;5022111;28;20422;-70
2022/09/17 09:24:57;;;;;;;8.45;2.40;;;9.30;98.00;;;;;;5017667;28;20061;-70
2022/09/17 09:27:36;;;;;;;3.85;1.70;;;9.50;98.00;;;;;;4979603;28;20324;-70
2022/09/17 09:30:12;;;;;;;6.80;2.10;;;9.50;98.00;;;;;;5018741;28;20422;-70
2022/09/17 09:32:53;;;;;;;4.85;1.80;;;9.40;98.00;;;;;;4996955;28;20045;-70
2022/09/17 09:35:26;;;;;;;8.18;2.13;;;9.60;98.00;;;;;;5012952;28;20330;-70
2022/09/17 09:38:03;;;;;;;7.60;2.05;;;9.60;98.00;;;;;;5007164;28;20111;-70
2022/09/17 09:40:57;;;;;;;8.93;3.03;;;9.40;98.00;;;;;;5017446;28;20045;-69
2022/09/17 09:43:46;;;;;;;4.88;2.28;;;9.30;98.00;;;;;;5016417;28;20683;-69
2022/09/17 09:46:14;;;;;;;6.28;2.85;;;9.10;98.00;;;;;;5004295;28;20500;-69
2022/09/17 09:48:58;;;;;;;9.45;2.78;;;9.10;98.00;;;;;;5014196;28;20121;-69
2022/09/17 09:52:01;;;;;;;11.23;4.97;;;9.10;98.00;;;;;;5016904;28;20030;-68
2022/09/17 09:54:52;;;;;;;7.85;3.53;;;9.10;98.00;;;;;;5013257;28;20025;-70
2022/09/17 09:57:29;;;;;;;6.50;3.20;;;9.20;98.00;;;;;;5013649;28;20028;-70
2022/09/17 10:00:25;;;;;;;10.98;4.32;;;9.40;98.00;;;;;;5016626;28;20025;-68
2022/09/17 10:03:05;;;;;;;5.90;1.98;;;9.70;98.00;;;;;;4981530;28;20339;-69
2022/09/17 10:05:31;;;;;;;11.13;3.75;;;9.80;98.00;;;;;;5015720;28;20022;-69
2022/09/17 10:07:58;;;;;;;8.05;3.42;;;9.90;98.00;;;;;;5017872;28;20105;-69
2022/09/17 10:10:26;;;;;;;7.88;3.97;;;9.90;98.00;;;;;;5017008;28;20029;-70
2022/09/17 10:13:06;;;;;;;8.93;2.47;;;9.80;98.00;;;;;;5016849;28;20092;-69
2022/09/17 10:15:34;;;;;;;12.02;3.00;;;9.70;98.00;;;;;;5019266;28;20076;-69
2022/09/17 10:18:17;;;;;;;10.95;3.58;;;9.70;98.00;;;;;;5005285;28;20382;-69
2022/09/17 10:20:53;;;;;;;17.35;3.15;;;10.00;98.00;;;;;;5016239;28;20060;-68
2022/09/17 10:23:20;;;;;;;9.65;2.35;;;10.10;98.00;;;;;;5016316;28;20029;-69
2022/09/17 10:25:47;;;;;;;12.95;4.00;;;10.30;98.00;;;;;;5023547;28;20319;-69
2022/09/17 10:28:45;;;;;;;10.68;3.60;;;10.50;98.00;;;;;;5018251;28;20022;-69
2022/09/17 10:31:11;;;;;;;16.45;4.60;;;10.80;98.00;;;;;;4999912;28;20108;-69
2022/09/17 10:33:52;;;;;;;8.23;3.10;;;10.80;98.00;;;;;;5010649;28;20243;-69
2022/09/17 10:36:39;;;;;;;9.35;3.05;;;10.70;98.00;;;;;;5006668;28;20033;-70
2022/09/17 10:39:30;;;;;;;8.63;2.22;;;10.70;97.20;;;;;;5007176;28;20053;-68
2022/09/17 10:41:58;;;;;;;7.82;2.33;;;11.00;95.60;;;;;;5020484;28;20069;-69
2022/09/17 10:44:31;;;;;;;8.95;2.40;;;11.20;95.40;;;;;;5001093;28;20386;-69
2022/09/17 10:47:25;;;;;;;6.97;2.05;;;11.60;95.40;;;;;;5007617;28;20103;-69
2022/09/17 10:50:04;;;;;;;8.73;2.20;;;11.90;94.90;;;;;;5009698;28;20457;-69
2022/09/17 10:52:42;;;;;;;7.32;2.50;;;11.80;94.20;;;;;;5014601;28;20281;-69
2022/09/17 10:55:24;;;;;;;8.68;2.70;;;11.70;92.70;;;;;;5012890;28;20108;-69
2022/09/17 10:58:00;;;;;;;10.20;2.67;;;11.70;94.30;;;;;;5017953;28;20022;-69
2022/09/17 11:00:37;;;;;;;9.27;2.90;;;11.60;92.80;;;;;;5015159;28;20311;-68
2022/09/17 11:03:08;;;;;;;9.00;2.95;;;11.30;93.40;;;;;;5016291;28;20033;-69
2022/09/17 11:05:58;;;;;;;7.07;1.90;;;11.30;94.50;;;;;;5013326;28;20112;-69
2022/09/17 11:08:30;;;;;;;6.55;1.90;;;12.70;91.80;;;;;;5014411;28;20053;-68
2022/09/17 11:11:37;;;;;;;7.70;2.05;;;12.80;87.80;;;;;;5008145;28;20088;-69
2022/09/17 11:14:34;;;;;;;7.78;1.73;;;12.30;89.00;;;;;;4983297;28;20140;-68
2022/09/17 11:17:28;;;;;;;9.57;2.03;;;11.80;90.50;;;;;;5020370;28;20739;-67
2022/09/17 11:20:20;;;;;;;6.82;1.77;;;11.80;90.80;;;;;;5030597;28;20037;-69
2022/09/17 11:23:03;;;;;;;6.03;1.65;;;12.00;90.20;;;;;;5009694;28;20076;-68
2022/09/17 11:25:34;;;;;;;8.00;2.20;;;13.00;89.40;;;;;;5007577;28;20053;-68
2022/09/17 11:28:23;;;;;;;6.32;1.70;;;13.10;87.20;;;;;;5007751;28;20505;-69
2022/09/17 11:31:27;;;;;;;6.20;1.75;;;12.90;88.40;;;;;;5014493;28;20033;-67
2022/09/17 11:34:20;;;;;;;7.20;1.83;;;12.50;87.90;;;;;;5014472;28;20026;-69
2022/09/17 11:37:10;;;;;;;12.18;3.03;;;12.10;88.00;;;;;;5014086;28;20469;-67
2022/09/17 11:39:40;;;;;;;4.93;1.50;;;11.90;90.20;;;;;;5012394;28;20029;-68
2022/09/17 11:42:25;;;;;;;6.78;2.08;;;11.80;89.80;;;;;;5015439;28;20021;-68
2022/09/17 11:45:10;;;;;;;9.85;2.30;;;12.20;91.10;;;;;;5015984;28;20366;-68
2022/09/17 11:47:44;;;;;;;9.80;3.42;;;12.60;89.40;;;;;;5013327;28;20060;-68
2022/09/17 11:50:18;;;;;;;8.68;3.00;;;12.80;89.20;;;;;;5013856;28;20439;-69
2022/09/17 11:52:57;;;;;;;9.07;2.65;;;13.00;88.20;;;;;;5015864;28;20026;-68
2022/09/17 11:55:39;;;;;;;6.57;1.83;;;12.80;88.10;;;;;;4996838;28;20034;-68
2022/09/17 11:58:35;;;;;;;7.68;1.73;;;12.80;88.10;;;;;;4998540;28;20434;-68
2022/09/17 12:01:06;;;;;;;4.22;1.65;;;13.00;87.60;;;;;;5015158;28;20129;-69
2022/09/17 12:03:50;;;;;;;5.13;1.35;;;13.80;86.80;;;;;;5016644;28;20088;-68
2022/09/17 12:06:22;;;;;;;5.70;1.35;;;14.30;82.30;;;;;;5016659;28;20025;-68
2022/09/17 12:09:11;;;;;;;5.28;1.85;;;14.30;80.70;;;;;;5014753;28;20414;-69
2022/09/17 12:12:03;;;;;;;7.82;2.75;;;13.80;82.60;;;;;;5025193;28;20116;-69
2022/09/17 12:14:45;;;;;;;8.60;3.05;;;13.10;84.60;;;;;;5009824;28;20027;-69
2022/09/17 12:17:48;;;;;;;6.38;2.25;;;12.90;84.80;;;;;;5011712;28;20034;-69
2022/09/17 12:20:28;;;;;;;7.63;2.13;;;12.90;86.70;;;;;;4992088;28;20084;-69
2022/09/17 12:23:02;;;;;;;7.80;1.83;;;13.10;85.50;;;;;;5019930;28;20029;-68
2022/09/17 12:25:36;;;;;;;9.77;2.30;;;13.20;85.70;;;;;;5012898;28;20160;-69
2022/09/17 12:28:11;;;;;;;7.40;1.67;;;13.30;85.20;;;;;;5015928;28;20026;-69
2022/09/17 12:31:02;;;;;;;6.88;1.85;;;13.40;83.70;;;;;;5009298;28;20028;-69
2022/09/17 12:33:38;;;;;;;21.10;2.78;;;13.20;84.10;;;;;;5024445;28;20108;-69
2022/09/17 12:36:35;;;;;;;7.28;1.83;;;13.30;84.50;;;;;;5015880;28;20022;-68
2022/09/17 12:39:31;;;;;;;6.53;1.85;;;13.30;84.10;;;;;;5011040;28;20034;-68
2022/09/17 12:42:33;;;;;;;45.30;5.13;;;13.70;84.60;;;;;;5013239;28;20029;-68
2022/09/17 12:45:17;;;;;;;5.32;1.65;;;13.80;81.60;;;;;;4998355;28;20025;-68
2022/09/17 12:47:55;;;;;;;4.57;1.60;;;13.30;82.70;;;;;;5014103;28;20423;-68
2022/09/17 12:51:11;;;;;;;10.43;1.60;;;13.00;85.60;;;;;;5004746;28;20116;-69
2022/09/17 12:53:51;;;;;;;;;;;12.30;86.80;;;;;;5011178;28;20316;-69
2022/09/17 12:56:37;;;;;;;8.23;2.10;;;12.10;88.90;;;;;;5013293;28;19909;-68
2022/09/17 12:59:13;;;;;;;6.13;1.70;;;12.10;88.70;;;;;;5028284;28;20022;-68
2022/09/17 13:01:54;;;;;;;4.78;1.48;;;12.00;87.90;;;;;;5017294;28;20120;-68
2022/09/17 13:04:44;;;;;;;4.63;1.35;;;12.00;89.50;;;;;;5019773;28;20037;-69
2022/09/17 13:07:13;;;;;;;6.43;1.52;;;12.20;88.20;;;;;;5014590;28;20072;-70
2022/09/17 13:10:15;;;;;;;5.82;1.40;;;12.20;88.90;;;;;;5018617;28;20033;-69
2022/09/17 13:12:56;;;;;;;4.65;1.48;;;12.40;89.00;;;;;;5017422;28;20116;-69
2022/09/17 13:15:51;;;;;;;6.38;1.48;;;12.60;88.60;;;;;;5019744;28;20026;-68
2022/09/17 13:18:31;;;;;;;5.13;1.23;;;12.90;87.10;;;;;;5015739;28;20034;-69
2022/09/17 13:21:05;;;;;;;6.93;1.60;;;13.40;86.70;;;;;;5018615;28;20022;-69
2022/09/17 13:23:38;;;;;;;6.55;1.70;;;13.40;85.60;;;;;;5018622;28;20032;-69
2022/09/17 13:26:05;;;;;;;4.70;1.48;;;14.00;85.60;;;;;;5018372;28;20026;-69
2022/09/17 13:28:46;;;;;;;7.40;2.08;;;14.20;85.40;;;;;;5019612;28;20134;-69